Terminal Aerodrome Forecast
Issued by NWS

Home | Current Version | Previous Version | Text Only | Print | Product List | Glossary On
Versions: 1 2 3 4 5 6 7 8 9 10 11 12 13 14 15
000
FTUS43 KMQT 291138
TAFSAW
TAF
KSAW 291138Z 2912/3012 22007KT P6SM BKN080
     FM291900 18006KT P6SM SCT080
     FM300900 22004KT 5SM BR FEW150=

USA.gov is the U.S. government's official web portal to all federal, state and local government web resources and services.